createdAt,value
2018-07-09T00:00:50.856Z,17.65
2018-07-09T00:01:50.847Z,17.52
2018-07-09T00:02:50.853Z,17.59
2018-07-09T00:03:50.798Z,17.50
2018-07-09T00:04:50.816Z,17.49
2018-07-09T00:05:50.772Z,17.50
2018-07-09T00:06:50.757Z,17.49
2018-07-09T00:07:50.763Z,17.45
2018-07-09T00:08:50.719Z,17.43
2018-07-09T00:09:50.745Z,17.46
2018-07-09T00:10:50.717Z,17.46
2018-07-09T00:11:50.684Z,17.43
2018-07-09T00:12:50.653Z,17.54
2018-07-09T00:13:50.666Z,17.50
2018-07-09T00:14:50.617Z,17.46
2018-07-09T00:15:50.623Z,17.46
2018-07-09T00:16:50.590Z,17.49
2018-07-09T00:17:50.592Z,17.45
2018-07-09T00:18:50.579Z,17.43
2018-07-09T00:19:50.543Z,17.38
2018-07-09T00:20:50.519Z,17.39
2018-07-09T00:21:50.511Z,17.39
2018-07-09T00:22:50.522Z,17.46
2018-07-09T00:23:50.515Z,17.38
2018-07-09T00:24:50.497Z,17.38
2018-07-09T00:25:50.436Z,17.39
2018-07-09T00:26:50.423Z,17.22
2018-07-09T00:27:50.397Z,17.19
2018-07-09T00:28:50.411Z,17.17
2018-07-09T00:29:50.400Z,17.10
2018-07-09T00:30:50.390Z,17.09
2018-07-09T00:31:50.331Z,17.09
2018-07-09T00:32:50.365Z,17.10
2018-07-09T00:33:50.331Z,17.20
2018-07-09T00:34:50.311Z,17.19
2018-07-09T00:35:50.284Z,17.16
2018-07-09T00:36:50.273Z,17.09
2018-07-09T00:37:50.232Z,17.17
2018-07-09T00:38:50.273Z,17.17
2018-07-09T00:39:50.227Z,17.19
2018-07-09T00:40:50.222Z,17.09
2018-07-09T00:41:50.182Z,17.12
2018-07-09T00:42:50.144Z,17.04
2018-07-09T00:43:50.153Z,16.97
2018-07-09T00:44:50.130Z,17.10
2018-07-09T00:45:50.094Z,17.10
2018-07-09T00:46:50.097Z,17.13
2018-07-09T00:47:50.167Z,17.14
2018-07-09T00:48:50.046Z,17.09
2018-07-09T00:49:50.029Z,17.13
2018-07-09T00:50:50.028Z,17.17
2018-07-09T00:51:50.005Z,17.12
2018-07-09T00:52:49.975Z,17.12
2018-07-09T00:53:49.961Z,17.13
2018-07-09T00:54:50.005Z,17.07
2018-07-09T00:55:49.970Z,17.02
2018-07-09T00:56:49.932Z,16.99
2018-07-09T00:57:49.919Z,17.06
2018-07-09T00:58:49.896Z,16.95
2018-07-09T00:59:49.877Z,16.98
2018-07-09T01:00:49.844Z,16.95
2018-07-09T01:01:49.831Z,16.92
2018-07-09T01:02:49.811Z,16.84
2018-07-09T01:03:49.809Z,16.95
2018-07-09T01:04:49.797Z,16.83
2018-07-09T01:05:49.809Z,16.82
2018-07-09T01:06:49.755Z,16.74
2018-07-09T01:07:49.720Z,16.74
2018-07-09T01:08:49.739Z,16.73
2018-07-09T01:09:49.690Z,16.74
2018-07-09T01:10:49.686Z,16.69
2018-07-09T01:11:49.679Z,16.69
2018-07-09T01:12:49.645Z,16.67
2018-07-09T01:13:49.614Z,16.65
2018-07-09T01:14:49.621Z,16.61
2018-07-09T01:15:49.582Z,16.64
2018-07-09T01:16:49.646Z,16.69
2018-07-09T01:17:49.570Z,16.55
2018-07-09T01:18:49.568Z,16.55
2018-07-09T01:19:49.533Z,16.58
2018-07-09T01:20:49.491Z,16.57
2018-07-09T01:21:49.492Z,16.54
2018-07-09T01:22:49.469Z,16.47
2018-07-09T01:23:49.468Z,16.47
2018-07-09T01:24:49.453Z,16.44
2018-07-09T01:25:49.435Z,16.49
2018-07-09T01:26:49.404Z,16.43
2018-07-09T01:27:49.373Z,16.49
2018-07-09T01:28:49.381Z,16.47
2018-07-09T01:29:49.375Z,16.46
2018-07-09T01:30:49.386Z,16.46
2018-07-09T01:31:49.326Z,16.43
2018-07-09T01:32:49.320Z,16.43
2018-07-09T01:33:49.337Z,16.37
2018-07-09T01:34:49.256Z,16.42
2018-07-09T01:35:49.240Z,16.44
2018-07-09T01:36:49.222Z,16.42
2018-07-09T01:37:49.230Z,16.43
2018-07-09T01:39:03.758Z,16.40
2018-07-09T01:39:49.204Z,16.37
2018-07-09T01:40:49.172Z,16.47
2018-07-09T01:41:49.158Z,16.42
2018-07-09T01:42:49.140Z,16.44
2018-07-09T01:43:49.101Z,16.37
2018-07-09T01:44:49.103Z,16.42
2018-07-09T01:45:49.162Z,16.40
2018-07-09T01:46:49.046Z,16.40
2018-07-09T01:47:49.033Z,16.36
2018-07-09T01:48:49.096Z,16.36
2018-07-09T01:49:49.016Z,16.37
2018-07-09T01:50:49.004Z,16.39
2018-07-09T01:51:48.988Z,16.36
2018-07-09T01:52:48.963Z,16.29
2018-07-09T01:53:48.928Z,16.28
2018-07-09T01:54:48.921Z,16.34
2018-07-09T01:55:48.893Z,16.18
2018-07-09T01:56:48.919Z,16.09
2018-07-09T01:57:48.865Z,16.08
2018-07-09T01:58:48.839Z,16.02
2018-07-09T01:59:48.823Z,16.05
2018-07-09T02:00:48.811Z,16.06
2018-07-09T02:01:48.815Z,16.02
2018-07-09T02:02:48.764Z,15.99
2018-07-09T02:03:48.751Z,16.02
2018-07-09T02:04:48.750Z,15.99
2018-07-09T02:05:48.718Z,15.91
2018-07-09T02:06:48.777Z,15.96
2018-07-09T02:07:48.692Z,16.00
2018-07-09T02:08:48.658Z,15.95
2018-07-09T02:09:48.642Z,15.91
2018-07-09T02:10:48.650Z,15.83
2018-07-09T02:11:48.612Z,15.80
2018-07-09T02:12:48.622Z,15.78
2018-07-09T02:13:48.587Z,15.83
2018-07-09T02:14:48.613Z,15.77
2018-07-09T02:15:48.549Z,15.81
2018-07-09T02:16:48.519Z,15.81
2018-07-09T02:17:48.523Z,15.78
2018-07-09T02:18:48.492Z,15.68
2018-07-09T02:19:48.475Z,15.72
2018-07-09T02:20:48.449Z,15.63
2018-07-09T02:21:48.453Z,15.66
2018-07-09T02:22:48.420Z,15.60
2018-07-09T02:23:48.411Z,15.52
2018-07-09T02:24:48.379Z,15.50
2018-07-09T02:25:48.385Z,15.51
2018-07-09T02:26:48.346Z,15.51
2018-07-09T02:27:48.338Z,15.54
2018-07-09T02:28:48.367Z,15.52
2018-07-09T02:29:48.296Z,15.50
2018-07-09T02:30:48.295Z,15.52
2018-07-09T02:31:48.283Z,15.50
2018-07-09T02:32:48.317Z,15.50
2018-07-09T02:33:48.240Z,15.58
2018-07-09T02:34:48.234Z,15.51
2018-07-09T02:35:48.208Z,15.51
2018-07-09T02:36:48.166Z,15.43
2018-07-09T02:37:48.153Z,15.43
2018-07-09T02:38:48.142Z,15.43
2018-07-09T02:39:48.152Z,15.41
2018-07-09T02:40:48.139Z,15.47
2018-07-09T02:41:48.076Z,15.52
2018-07-09T02:42:48.073Z,15.41
2018-07-09T02:43:48.053Z,15.40
2018-07-09T02:44:48.025Z,15.40
2018-07-09T02:45:48.008Z,15.38
2018-07-09T02:46:47.986Z,15.35
2018-07-09T02:47:47.985Z,15.41
2018-07-09T02:48:47.963Z,15.40
2018-07-09T02:49:47.944Z,15.38
2018-07-09T02:50:47.912Z,15.32
2018-07-09T02:51:47.928Z,15.30
2018-07-09T02:52:47.911Z,15.36
2018-07-09T02:53:47.864Z,15.32
2018-07-09T02:54:47.844Z,15.33
2018-07-09T02:55:47.851Z,15.35
2018-07-09T02:56:47.812Z,15.36
2018-07-09T02:57:47.790Z,15.38
2018-07-09T02:58:47.843Z,15.33
2018-07-09T02:59:47.807Z,15.40
2018-07-09T03:00:47.798Z,15.35
2018-07-09T03:01:47.731Z,15.35
2018-07-09T03:02:49.209Z,15.38
2018-07-09T03:03:47.724Z,15.38
2018-07-09T03:04:47.662Z,15.32
2018-07-09T03:05:47.650Z,15.36
2018-07-09T03:06:47.644Z,15.33
2018-07-09T03:07:47.638Z,15.33
2018-07-09T03:08:47.607Z,15.22
2018-07-09T03:09:47.651Z,15.22
2018-07-09T03:10:47.607Z,15.17
2018-07-09T03:11:47.554Z,15.19
2018-07-09T03:12:47.518Z,15.14
2018-07-09T03:13:47.513Z,15.23
2018-07-09T03:14:47.483Z,15.22
2018-07-09T03:15:47.488Z,15.25
2018-07-09T03:16:47.485Z,15.19
2018-07-09T03:17:47.431Z,15.07
2018-07-09T03:18:47.454Z,15.11
2018-07-09T03:19:47.424Z,15.08
2018-07-09T03:20:47.409Z,14.96
2018-07-09T03:21:47.355Z,15.03
2018-07-09T03:22:47.343Z,14.92
2018-07-09T03:23:47.325Z,14.95
2018-07-09T03:24:47.326Z,14.93
2018-07-09T03:25:47.282Z,14.92
2018-07-09T03:26:47.274Z,14.89
2018-07-09T03:27:47.267Z,14.97
2018-07-09T03:28:47.228Z,14.89
2018-07-09T03:29:47.218Z,14.86
2018-07-09T03:30:47.212Z,14.89
2018-07-09T03:31:47.177Z,14.86
2018-07-09T03:32:47.204Z,14.87
2018-07-09T03:33:47.157Z,14.85
2018-07-09T03:34:47.127Z,14.82
2018-07-09T03:35:47.134Z,14.79
2018-07-09T03:36:47.130Z,14.83
2018-07-09T03:37:47.085Z,14.85
2018-07-09T03:38:47.047Z,14.70
2018-07-09T03:39:47.032Z,14.85
2018-07-09T03:40:47.074Z,14.67
2018-07-09T03:41:47.018Z,14.82
2018-07-09T03:42:47.001Z,14.87
2018-07-09T03:43:46.974Z,14.69
2018-07-09T03:44:46.960Z,14.87
2018-07-09T03:45:46.986Z,14.86
2018-07-09T03:46:46.919Z,14.82
2018-07-09T03:47:46.900Z,14.87
2018-07-09T03:48:46.871Z,14.87
2018-07-09T03:49:46.926Z,14.93
2018-07-09T03:50:46.834Z,14.90
2018-07-09T03:51:46.815Z,14.93
2018-07-09T03:52:46.816Z,14.90
2018-07-09T03:53:46.792Z,14.96
2018-07-09T03:54:46.784Z,14.89
2018-07-09T03:55:46.738Z,14.96
2018-07-09T03:56:46.734Z,14.90
2018-07-09T03:57:46.774Z,14.93
2018-07-09T03:58:46.709Z,14.92
2018-07-09T03:59:46.686Z,14.89
2018-07-09T04:00:46.681Z,14.87
2018-07-09T04:01:46.676Z,14.99
2018-07-09T04:02:46.628Z,14.96
2018-07-09T04:03:46.617Z,14.92
2018-07-09T04:04:46.604Z,14.96
2018-07-09T04:05:46.560Z,15.04
2018-07-09T04:06:46.564Z,15.04
2018-07-09T04:07:46.539Z,15.12
2018-07-09T04:08:46.507Z,15.01
2018-07-09T04:09:46.502Z,15.05
2018-07-09T04:10:46.485Z,15.07
2018-07-09T04:11:46.446Z,15.10
2018-07-09T04:12:46.501Z,15.19
2018-07-09T04:13:46.443Z,15.07
2018-07-09T04:14:46.414Z,15.15
2018-07-09T04:15:46.408Z,15.19
2018-07-09T04:16:46.360Z,15.20
2018-07-09T04:17:46.400Z,15.14
2018-07-09T04:18:46.322Z,15.14
2018-07-09T04:19:46.369Z,15.19
2018-07-09T04:20:46.355Z,15.22
2018-07-09T04:21:46.264Z,15.14
2018-07-09T04:22:46.249Z,15.19
2018-07-09T04:30:06.254Z,15.20
2018-07-09T04:34:03.411Z,15.33
2018-07-09T04:35:03.330Z,15.32
2018-07-09T04:36:03.453Z,15.36
2018-07-09T04:37:03.293Z,15.32
2018-07-09T04:38:03.287Z,15.35
2018-07-09T04:39:03.321Z,15.32
2018-07-09T04:40:03.231Z,15.35
2018-07-09T04:41:03.249Z,15.30
2018-07-09T04:42:03.190Z,15.43
2018-07-09T04:43:03.172Z,15.38
2018-07-09T04:44:03.169Z,15.33
2018-07-09T04:45:03.137Z,15.40
2018-07-09T04:46:03.112Z,15.41
2018-07-09T04:47:03.102Z,15.45
2018-07-09T04:48:03.076Z,15.41
2018-07-09T04:49:03.071Z,15.51
2018-07-09T04:50:03.042Z,15.52
2018-07-09T04:51:03.031Z,15.52
2018-07-09T04:52:03.062Z,15.50
2018-07-09T04:53:02.987Z,15.58
2018-07-09T04:54:02.969Z,15.62
2018-07-09T04:55:02.957Z,15.63
2018-07-09T04:56:02.940Z,15.51
2018-07-09T04:57:02.944Z,15.62
2018-07-09T04:58:02.895Z,15.65
2018-07-09T04:59:02.877Z,15.62
2018-07-09T05:00:02.903Z,15.60
2018-07-09T05:01:02.855Z,15.66
2018-07-09T05:02:02.829Z,15.69
2018-07-09T05:03:02.846Z,15.69
2018-07-09T05:04:02.792Z,15.72
2018-07-09T05:05:02.794Z,15.76
2018-07-09T05:06:02.787Z,15.76
2018-07-09T05:07:02.745Z,15.78
2018-07-09T05:08:02.721Z,15.78
2018-07-09T05:09:02.746Z,15.83
2018-07-09T05:10:02.678Z,15.77
2018-07-09T05:11:02.673Z,15.85
2018-07-09T05:12:02.680Z,15.87
2018-07-09T05:13:02.695Z,15.83
2018-07-09T05:14:02.609Z,15.85
2018-07-09T05:15:02.593Z,15.90
2018-07-09T05:17:25.935Z,15.93
2018-07-09T05:18:25.638Z,16.02
2018-07-09T05:19:25.795Z,16.00
2018-07-09T05:20:25.596Z,15.95
2018-07-09T05:21:25.565Z,15.98
2018-07-09T05:22:25.547Z,16.03
2018-07-09T05:23:25.532Z,16.02
2018-07-09T05:24:25.516Z,16.09
2018-07-09T05:25:25.512Z,16.08
2018-07-09T05:26:25.468Z,16.14
2018-07-09T05:27:25.491Z,16.08
2018-07-09T05:28:25.962Z,16.22
2018-07-09T05:29:25.463Z,16.21
2018-07-09T05:30:25.469Z,16.21
2018-07-09T05:31:25.418Z,16.24
2018-07-09T05:32:25.492Z,16.18
2018-07-09T05:33:25.375Z,16.22
2018-07-09T05:34:25.322Z,16.33
2018-07-09T05:36:49.644Z,16.34
2018-07-09T05:37:48.571Z,16.34
2018-07-09T05:39:01.321Z,16.36
2018-07-09T05:40:55.477Z,16.43
2018-07-09T05:41:42.221Z,16.51
2018-07-09T05:44:05.193Z,16.61
2018-07-09T05:46:28.221Z,16.54
2018-07-09T05:47:28.326Z,16.70
2018-07-09T05:49:52.216Z,16.72
2018-07-09T05:50:52.128Z,16.73
2018-07-09T05:51:52.143Z,16.77
2018-07-09T05:52:52.227Z,16.82
2018-07-09T05:55:17.614Z,16.94
2018-07-09T05:56:17.246Z,16.95
2018-07-09T05:58:39.232Z,17.10
2018-07-09T06:01:13.626Z,17.34
2018-07-09T06:03:25.719Z,17.54
2018-07-09T06:04:25.188Z,17.57
2018-07-09T06:06:59.413Z,17.76
2018-07-09T06:07:48.203Z,17.68
2018-07-09T06:10:21.407Z,17.93
2018-07-09T06:11:12.256Z,18.05
2018-07-09T06:13:46.316Z,18.27
2018-07-09T06:15:57.518Z,18.51
2018-07-09T06:18:20.595Z,18.68
2018-07-09T06:19:20.395Z,18.61
2018-07-09T06:21:43.354Z,18.71
2018-07-09T06:22:43.340Z,18.71
2018-07-09T06:23:43.314Z,18.76
2018-07-09T06:24:43.535Z,18.67
2018-07-09T06:27:16.422Z,18.82
2018-07-09T06:28:06.381Z,18.83
2018-07-09T06:29:06.460Z,19.07
2018-07-09T06:30:06.357Z,19.15
2018-07-09T06:31:06.315Z,19.19
2018-07-09T06:32:06.503Z,19.05
2018-07-09T06:33:06.527Z,19.24
2018-07-09T06:34:06.314Z,19.26
2018-07-09T06:35:06.288Z,19.37
2018-07-09T06:36:06.240Z,19.50
2018-07-09T06:37:06.231Z,19.52
2018-07-09T06:38:06.231Z,19.53
2018-07-09T06:39:06.371Z,19.52
2018-07-09T06:41:39.434Z,19.74
2018-07-09T06:42:29.485Z,19.87
2018-07-09T06:43:29.279Z,19.97
2018-07-09T06:46:02.559Z,20.33
2018-07-09T06:46:52.339Z,20.44
2018-07-09T06:49:23.062Z,20.60
2018-07-09T06:51:38.436Z,20.74
2018-07-09T06:52:38.404Z,20.60
2018-07-09T06:53:38.426Z,20.58
2018-07-09T06:54:38.392Z,20.39
2018-07-09T06:57:13.517Z,20.53
2018-07-09T06:58:01.472Z,20.41
2018-07-09T06:59:01.467Z,20.53
2018-07-09T07:00:01.394Z,20.44
2018-07-09T07:01:01.453Z,20.63
2018-07-09T07:02:01.352Z,20.60
2018-07-09T07:04:34.707Z,20.65
2018-07-09T07:05:24.472Z,20.65
2018-07-09T07:06:24.361Z,20.75
2018-07-09T07:07:24.375Z,20.68
2018-07-09T07:08:24.354Z,20.64
2018-07-09T07:09:24.343Z,20.56
2018-07-09T07:10:24.425Z,20.55
2018-07-09T07:11:24.356Z,20.41
2018-07-09T07:13:57.498Z,20.12
2018-07-09T07:14:47.516Z,20.14
2018-07-09T07:15:47.508Z,20.27
2018-07-09T07:16:47.370Z,20.33
2018-07-09T07:17:47.329Z,20.56
2018-07-09T07:18:47.323Z,20.61
2018-07-09T07:19:47.398Z,20.53
2018-07-09T07:20:47.352Z,20.56
2018-07-09T07:21:47.325Z,20.60
2018-07-09T07:24:18.055Z,20.79
2018-07-09T07:25:10.354Z,20.88
2018-07-09T07:27:13.796Z,21.05
2018-07-09T07:28:03.841Z,21.08
2018-07-09T07:29:03.713Z,21.18
2018-07-09T07:30:03.777Z,21.28
2018-07-09T07:31:03.689Z,21.47
2018-07-09T07:32:03.712Z,21.30
2018-07-09T07:33:03.725Z,21.22
2018-07-09T07:34:03.675Z,21.18
2018-07-09T07:35:03.668Z,20.97
2018-07-09T07:37:26.723Z,20.95
2018-07-09T07:39:49.864Z,20.97
2018-07-09T07:42:23.866Z,21.18
2018-07-09T07:43:13.767Z,21.26
2018-07-09T07:44:14.066Z,21.04
2018-07-09T07:45:13.752Z,21.11
2018-07-09T07:46:13.734Z,21.10
2018-07-09T07:47:13.815Z,21.07
2018-07-09T07:48:13.711Z,21.10
2018-07-09T07:49:13.682Z,21.25
2018-07-09T07:50:13.737Z,21.18
2018-07-09T07:51:13.680Z,21.19
2018-07-09T07:52:13.650Z,21.19
2018-07-09T07:53:13.635Z,21.35
2018-07-09T07:54:13.641Z,21.34
2018-07-09T07:55:13.640Z,21.32
2018-07-09T07:57:36.660Z,21.62
2018-07-09T07:58:36.733Z,21.55
2018-07-09T07:59:36.648Z,21.55
2018-07-09T08:00:36.652Z,21.53
2018-07-09T08:02:59.721Z,21.40
2018-07-09T08:03:59.751Z,21.51
2018-07-09T08:04:59.634Z,21.60
2018-07-09T08:06:00.516Z,21.63
2018-07-09T08:08:37.120Z,21.96
2018-07-09T08:09:24.406Z,22.03
2018-07-09T08:10:24.320Z,22.09
2018-07-09T08:11:47.726Z,22.04
2018-07-09T08:13:48.254Z,21.93
2018-07-09T08:14:48.226Z,21.91
2018-07-09T08:15:48.174Z,21.85
2018-07-09T08:16:48.195Z,21.82
2018-07-09T08:17:48.116Z,21.66
2018-07-09T08:18:48.149Z,21.73
2018-07-09T08:19:48.070Z,21.71
2018-07-09T08:20:48.077Z,21.77
2018-07-09T08:21:48.069Z,21.65
2018-07-09T08:22:48.090Z,21.44
2018-07-09T08:23:48.030Z,21.37
2018-07-09T08:24:48.103Z,21.34
2018-07-09T08:27:10.069Z,21.47
2018-07-09T08:28:10.105Z,21.43
2018-07-09T08:30:14.594Z,21.44
2018-07-09T08:31:04.467Z,21.43
2018-07-09T08:32:04.397Z,21.62
2018-07-09T08:33:04.394Z,21.63
2018-07-09T08:34:04.372Z,21.84
2018-07-09T08:35:04.349Z,21.85
2018-07-09T08:36:04.373Z,21.90
2018-07-09T08:37:04.398Z,21.93
2018-07-09T08:38:04.446Z,21.98
2018-07-09T08:39:04.355Z,22.12
2018-07-09T08:40:04.405Z,22.06
2018-07-09T08:42:36.421Z,22.31
2018-07-09T08:43:27.250Z,22.36
2018-07-09T08:44:26.392Z,22.56
2018-07-09T08:46:49.624Z,22.91
2018-07-09T08:47:49.347Z,22.99
2018-07-09T08:48:49.393Z,22.93
2018-07-09T08:49:49.311Z,23.01
2018-07-09T08:50:49.377Z,23.08
2018-07-09T08:51:49.313Z,23.08
2018-07-09T08:52:49.312Z,23.01
2018-07-09T08:53:49.262Z,23.04
2018-07-09T08:54:49.271Z,22.92
2018-07-09T08:57:12.868Z,23.04
2018-07-09T08:58:12.333Z,23.01
2018-07-09T09:00:46.631Z,23.17
2018-07-09T09:02:59.478Z,23.34
2018-07-09T09:05:32.580Z,23.55
2018-07-09T09:06:22.422Z,23.54
2018-07-09T09:07:22.465Z,23.54
2018-07-09T09:08:22.395Z,23.34
2018-07-09T09:09:22.393Z,23.42
2018-07-09T09:10:22.420Z,23.21
2018-07-09T09:11:22.387Z,23.11
2018-07-09T09:12:22.355Z,23.04
2018-07-09T09:13:22.369Z,23.15
2018-07-09T09:14:22.339Z,23.33
2018-07-09T09:15:22.331Z,23.48
2018-07-09T09:16:22.315Z,23.44
2018-07-09T09:17:22.351Z,23.45
2018-07-09T09:18:22.297Z,23.31
2018-07-09T09:19:22.283Z,23.41
2018-07-09T09:20:22.282Z,23.42
2018-07-09T09:21:22.271Z,23.34
2018-07-09T09:22:22.260Z,23.01
2018-07-09T09:23:22.255Z,23.06
2018-07-09T09:24:22.246Z,22.96
2018-07-09T09:25:22.254Z,23.08
2018-07-09T09:26:22.228Z,23.10
2018-07-09T09:27:22.226Z,23.21
2018-07-09T09:28:22.209Z,23.23
2018-07-09T09:29:22.184Z,23.31
2018-07-09T09:31:55.306Z,23.33
2018-07-09T09:32:45.205Z,23.44
2018-07-09T09:35:10.207Z,23.41
2018-07-09T09:36:10.320Z,23.36
2018-07-09T09:37:10.185Z,23.18
2018-07-09T09:38:10.168Z,23.21
2018-07-09T09:39:10.164Z,23.07
2018-07-09T09:40:10.136Z,23.06
2018-07-09T09:41:10.138Z,22.93
2018-07-09T09:42:10.155Z,23.01
2018-07-09T09:43:10.281Z,23.14
2018-07-09T09:44:10.114Z,23.11
2018-07-09T09:45:10.075Z,23.06
2018-07-09T09:46:10.195Z,22.85
2018-07-09T09:47:10.059Z,22.93
2018-07-09T09:48:10.118Z,22.99
2018-07-09T09:49:10.122Z,23.08
2018-07-09T09:50:10.028Z,23.13
2018-07-09T09:51:10.022Z,23.29
2018-07-09T09:52:10.029Z,23.31
2018-07-09T09:53:09.990Z,23.37
2018-07-09T09:54:09.988Z,23.41
2018-07-09T09:55:09.969Z,23.44
2018-07-09T09:56:09.968Z,23.51
2018-07-09T09:57:09.948Z,23.44
2018-07-09T09:58:09.952Z,23.45
2018-07-09T09:59:09.951Z,23.60
2018-07-09T10:00:09.910Z,23.66
2018-07-09T10:01:09.927Z,23.64
2018-07-09T10:02:09.932Z,23.82
2018-07-09T10:03:09.882Z,23.85
2018-07-09T10:04:09.862Z,23.92
2018-07-09T10:05:09.859Z,24.00
2018-07-09T10:06:09.881Z,23.97
2018-07-09T10:07:09.844Z,23.98
2018-07-09T10:08:09.825Z,23.92
2018-07-09T10:09:09.857Z,23.97
2018-07-09T10:10:09.798Z,23.78
2018-07-09T10:11:09.814Z,23.70
2018-07-09T10:12:09.778Z,23.78
2018-07-09T10:13:09.760Z,23.78
2018-07-09T10:14:09.759Z,23.78
2018-07-09T10:15:09.739Z,23.94
2018-07-09T10:16:09.734Z,24.04
2018-07-09T10:17:09.762Z,24.11
2018-07-09T10:18:09.741Z,24.22
2018-07-09T10:19:09.706Z,24.34
2018-07-09T10:20:09.695Z,24.37
2018-07-09T10:21:09.708Z,24.41
2018-07-09T10:22:09.679Z,24.59
2018-07-09T10:23:09.871Z,24.66
2018-07-09T10:24:09.675Z,24.81
2018-07-09T10:25:09.633Z,24.89
2018-07-09T10:26:09.627Z,25.09
2018-07-09T10:27:09.627Z,25.15
2018-07-09T10:28:09.616Z,25.33
2018-07-09T10:29:09.622Z,25.49
2018-07-09T10:30:09.582Z,25.45
2018-07-09T10:31:09.569Z,25.53
2018-07-09T10:32:09.563Z,25.49
2018-07-09T10:33:09.548Z,25.40
2018-07-09T10:34:09.537Z,25.03
2018-07-09T10:35:09.549Z,24.89
2018-07-09T10:36:09.527Z,25.00
2018-07-09T10:37:09.535Z,25.22
2018-07-09T10:38:09.529Z,25.36
2018-07-09T10:39:09.486Z,25.48
2018-07-09T10:40:09.778Z,25.66
2018-07-09T10:41:09.477Z,25.82
2018-07-09T10:42:09.483Z,25.78
2018-07-09T10:43:09.657Z,25.83
2018-07-09T10:44:09.454Z,25.81
2018-07-09T10:45:09.431Z,25.85
2018-07-09T10:46:09.427Z,25.81
2018-07-09T10:47:09.493Z,25.71
2018-07-09T10:48:09.427Z,25.51
2018-07-09T10:49:09.398Z,25.21
2018-07-09T10:50:09.395Z,25.00
2018-07-09T10:51:09.373Z,24.90
2018-07-09T10:52:09.387Z,24.91
2018-07-09T10:53:09.364Z,24.89
2018-07-09T10:54:09.404Z,24.76
2018-07-09T10:55:09.408Z,24.60
2018-07-09T10:56:09.336Z,24.36
2018-07-09T10:57:09.362Z,24.26
2018-07-09T10:58:09.343Z,24.19
2018-07-09T10:59:09.304Z,24.19
2018-07-09T11:00:09.296Z,24.10
2018-07-09T11:01:09.289Z,24.03
2018-07-09T11:02:09.271Z,24.03
2018-07-09T11:03:09.269Z,24.03
2018-07-09T11:04:09.260Z,24.04
2018-07-09T11:05:09.253Z,24.08
2018-07-09T11:06:09.486Z,24.03
2018-07-09T11:07:09.301Z,24.04
2018-07-09T11:08:09.210Z,24.01
2018-07-09T11:09:09.225Z,23.89
2018-07-09T11:10:09.727Z,23.91
2018-07-09T11:12:33.106Z,24.01
2018-07-09T11:13:33.222Z,24.03
2018-07-09T11:14:33.102Z,24.15
2018-07-09T11:15:33.064Z,24.19
2018-07-09T11:16:33.167Z,24.22
2018-07-09T11:17:33.039Z,24.36
2018-07-09T11:18:33.029Z,24.41
2018-07-09T11:19:32.996Z,24.44
2018-07-09T11:20:32.987Z,24.48
2018-07-09T11:21:33.034Z,24.53
2018-07-09T11:24:06.088Z,24.71
2018-07-09T11:24:56.026Z,24.82
2018-07-09T11:25:56.063Z,24.89
2018-07-09T11:26:55.968Z,24.85
2018-07-09T11:27:56.004Z,24.99
2018-07-09T11:30:19.058Z,25.37
2018-07-09T11:32:42.035Z,25.55
2018-07-09T11:33:41.998Z,25.55
2018-07-09T11:34:42.133Z,25.63
2018-07-09T11:35:41.999Z,25.71
2018-07-09T11:36:42.027Z,25.68
2018-07-09T11:37:41.995Z,25.67
2018-07-09T11:38:41.945Z,25.58
2018-07-09T11:39:41.937Z,25.51
2018-07-09T11:40:41.933Z,25.45
2018-07-09T11:41:42.010Z,25.06
2018-07-09T11:42:41.961Z,24.96
2018-07-09T11:43:41.908Z,24.94
2018-07-09T11:44:41.893Z,24.90
2018-07-09T11:45:41.939Z,25.06
2018-07-09T11:48:04.914Z,25.09
2018-07-09T11:50:38.041Z,25.46
2018-07-09T11:51:27.962Z,25.59
2018-07-09T11:52:27.947Z,25.59
2018-07-09T11:53:28.121Z,25.61
2018-07-09T11:54:27.944Z,25.67
2018-07-09T11:55:27.924Z,25.81
2018-07-09T11:56:27.892Z,25.67
2018-07-09T11:57:27.895Z,25.66
2018-07-09T11:59:50.966Z,25.83
2018-07-09T12:00:50.996Z,25.82
2018-07-09T12:01:51.021Z,25.83
2018-07-09T12:02:50.870Z,25.85
2018-07-09T12:03:50.873Z,25.68
2018-07-09T12:04:50.940Z,25.73
2018-07-09T12:07:24.073Z,25.92
2018-07-09T12:08:14.004Z,26.03
2018-07-09T12:09:13.952Z,26.05
2018-07-09T12:10:13.971Z,26.19
2018-07-09T12:11:13.976Z,26.27
2018-07-09T12:13:47.101Z,26.41
2018-07-09T12:16:10.068Z,26.73
2018-07-09T12:17:00.269Z,26.78
2018-07-09T12:19:33.181Z,26.86
2018-07-09T12:20:23.010Z,26.82
2018-07-09T12:22:46.077Z,26.52
2018-07-09T12:23:46.047Z,26.39
2018-07-09T12:24:46.031Z,26.15
2018-07-09T12:25:46.043Z,26.11
2018-07-09T12:26:46.044Z,25.88
2018-07-09T12:27:45.987Z,25.89
2018-07-09T12:28:45.976Z,25.89
2018-07-09T12:29:45.979Z,25.90
2018-07-09T12:30:46.059Z,25.92
2018-07-09T12:31:45.967Z,25.86
2018-07-09T12:34:19.121Z,25.89
2018-07-09T12:35:08.958Z,25.78
2018-07-09T12:36:09.005Z,25.77
2018-07-09T12:38:32.157Z,25.70
2018-07-09T12:39:32.031Z,25.66
2018-07-09T12:40:32.032Z,25.59
2018-07-09T12:41:31.973Z,25.55
2018-07-09T12:42:31.952Z,25.58
2018-07-09T12:43:31.924Z,25.64
2018-07-09T12:44:31.943Z,25.81
2018-07-09T12:45:31.905Z,25.96
2018-07-09T12:46:31.918Z,26.03
2018-07-09T12:48:54.991Z,26.08
2018-07-09T12:49:54.952Z,26.05
2018-07-09T12:52:28.021Z,26.10
2018-07-09T12:54:41.092Z,26.10
2018-07-09T12:55:41.066Z,26.04
2018-07-09T12:56:41.056Z,26.04
2018-07-09T12:57:40.989Z,26.08
2018-07-09T12:58:40.948Z,26.10
2018-07-09T12:59:40.964Z,26.21
2018-07-09T13:00:40.931Z,26.11
2018-07-09T13:01:40.943Z,26.31
2018-07-09T13:02:40.942Z,26.31
2018-07-09T13:03:40.903Z,26.34
2018-07-09T13:04:40.896Z,26.39
2018-07-09T13:07:04.120Z,26.58
2018-07-09T13:08:03.932Z,26.53
2018-07-09T13:10:36.724Z,26.71
2018-07-09T13:12:50.640Z,26.79
2018-07-09T13:13:50.617Z,26.56
2018-07-09T13:14:50.611Z,26.51
2018-07-09T13:15:50.596Z,26.46
2018-07-09T13:16:50.565Z,26.48
2018-07-09T13:17:59.206Z,26.85
2018-07-09T13:19:44.949Z,27.68
2018-07-09T13:20:44.917Z,27.91
2018-07-09T13:21:45.022Z,27.54
2018-07-09T13:22:44.905Z,27.38
2018-07-09T13:23:44.915Z,27.27
2018-07-09T13:24:44.906Z,27.05
2018-07-09T13:25:44.903Z,26.89
2018-07-09T13:26:44.892Z,26.70
2018-07-09T13:27:44.884Z,26.70
2018-07-09T13:28:44.855Z,26.85
2018-07-09T13:29:44.863Z,26.78
2018-07-09T13:30:44.846Z,26.80
2018-07-09T13:31:44.836Z,26.83
2018-07-09T13:32:44.833Z,26.86
2018-07-09T13:33:44.829Z,26.83
2018-07-09T13:34:44.851Z,26.68
2018-07-09T13:35:44.814Z,26.57
2018-07-09T13:36:44.834Z,26.31
2018-07-09T13:37:44.849Z,26.27
2018-07-09T13:38:44.820Z,26.24
2018-07-09T13:39:44.781Z,26.27
2018-07-09T13:40:44.898Z,26.30
2018-07-09T13:41:44.794Z,26.27
2018-07-09T13:42:44.767Z,26.21
2018-07-09T13:43:44.772Z,25.86
2018-07-09T13:44:44.745Z,25.81
2018-07-09T13:45:53.440Z,25.70
2018-07-09T13:47:39.132Z,25.81
2018-07-09T13:48:39.117Z,25.85
2018-07-09T13:49:39.112Z,26.04
2018-07-09T13:50:39.093Z,25.95
2018-07-09T13:51:39.112Z,25.96
2018-07-09T13:52:39.075Z,25.93
2018-07-09T13:55:02.689Z,25.63
2018-07-09T13:56:02.127Z,25.58
2018-07-09T13:57:02.131Z,25.46
2018-07-09T13:58:03.084Z,25.40
2018-07-09T13:59:02.106Z,25.49
2018-07-09T14:00:02.122Z,25.46
2018-07-09T14:02:35.229Z,25.52
2018-07-09T14:03:25.130Z,25.48
2018-07-09T14:04:25.155Z,25.46
2018-07-09T14:05:25.176Z,25.46
2018-07-09T14:07:49.882Z,25.66
2018-07-09T14:10:12.615Z,25.71
2018-07-09T14:11:12.441Z,25.66
2018-07-09T14:12:12.408Z,25.63
2018-07-09T14:13:12.420Z,25.53
2018-07-09T14:14:12.393Z,25.48
2018-07-09T14:15:12.409Z,25.36
2018-07-09T14:16:12.379Z,25.34
2018-07-09T14:18:45.771Z,25.37
2018-07-09T14:19:35.389Z,25.41
2018-07-09T14:20:35.557Z,25.34
2018-07-09T14:21:44.329Z,25.41
2018-07-09T14:30:16.852Z,25.14
2018-07-09T14:32:13.829Z,24.94
2018-07-09T14:33:13.846Z,24.89
2018-07-09T14:34:13.799Z,24.82
2018-07-09T14:36:46.895Z,24.65
2018-07-09T14:37:36.906Z,24.47
2018-07-09T14:38:36.796Z,24.45
2018-07-09T14:39:36.956Z,24.28
2018-07-09T14:42:15.966Z,24.23
2018-07-09T14:43:00.768Z,24.21
2018-07-09T14:45:33.985Z,24.19
2018-07-09T15:01:07.236Z,24.03
2018-07-09T15:01:48.373Z,24.13
2018-07-09T15:02:48.364Z,24.03
2018-07-09T15:03:48.347Z,23.89